createdAt,value
2017-12-19T00:00:51.976Z,0.10
2017-12-19T00:03:20.239Z,0.10
2017-12-19T00:05:48.502Z,0.10
2017-12-19T00:08:16.788Z,0.20
2017-12-19T00:10:44.279Z,0.10
2017-12-19T00:13:11.799Z,0.20
2017-12-19T00:15:39.300Z,0.20
2017-12-19T00:18:06.824Z,0.20
2017-12-19T00:20:35.088Z,0.20
2017-12-19T00:23:02.615Z,0.20
2017-12-19T00:25:30.111Z,0.10
2017-12-19T00:27:57.630Z,0.10
2017-12-19T00:30:25.131Z,0.10
2017-12-19T00:32:53.419Z,0.20
2017-12-19T00:35:21.683Z,0.20
2017-12-19T00:37:49.179Z,0.20
2017-12-19T00:40:16.698Z,0.20
2017-12-19T00:42:44.195Z,0.20
2017-12-19T00:45:11.716Z,0.20
2017-12-19T00:47:39.983Z,0.30
2017-12-19T00:50:07.498Z,0.30
2017-12-19T00:52:34.999Z,0.30
2017-12-19T00:55:02.519Z,0.30
2017-12-19T00:57:30.023Z,0.40
2017-12-19T00:59:57.542Z,0.40
2017-12-19T01:02:25.039Z,0.40
2017-12-19T01:04:52.563Z,0.40
2017-12-19T01:07:20.059Z,0.50
2017-12-19T01:09:48.344Z,0.50
2017-12-19T01:12:16.610Z,0.50
2017-12-19T01:14:44.130Z,0.50
2017-12-19T01:17:11.631Z,0.50
2017-12-19T01:19:39.894Z,0.50
2017-12-19T01:22:07.419Z,0.50
2017-12-19T01:24:34.914Z,0.50
2017-12-19T01:27:03.287Z,0.50
2017-12-19T01:29:30.789Z,0.50
2017-12-19T01:31:58.310Z,0.50
2017-12-19T01:34:25.808Z,0.50
2017-12-19T01:36:53.323Z,0.50
2017-12-19T01:39:20.819Z,0.60
2017-12-19T01:41:48.339Z,0.50
2017-12-19T01:44:16.607Z,0.60
2017-12-19T01:46:44.131Z,0.60
2017-12-19T01:49:11.626Z,0.60
2017-12-19T01:51:39.124Z,0.60
2017-12-19T01:54:06.647Z,0.50
2017-12-19T01:56:34.144Z,0.50
2017-12-19T01:59:01.667Z,0.50
2017-12-19T02:01:29.163Z,0.60
2017-12-19T02:03:56.682Z,0.60
2017-12-19T02:06:24.185Z,0.60
2017-12-19T02:08:51.707Z,0.50
2017-12-19T02:11:19.974Z,0.60
2017-12-19T02:13:47.500Z,0.50
2017-12-19T02:16:14.999Z,0.60
2017-12-19T02:18:42.523Z,0.60
2017-12-19T02:21:10.023Z,0.50
2017-12-19T02:23:38.290Z,0.60
2017-12-19T02:26:05.815Z,0.60
2017-12-19T02:28:33.315Z,0.60
2017-12-19T02:31:01.602Z,0.70
2017-12-19T02:33:29.862Z,0.70
2017-12-19T02:35:58.152Z,0.70
2017-12-19T02:38:26.459Z,0.70
2017-12-19T02:40:53.996Z,0.70
2017-12-19T02:43:21.512Z,0.70
2017-12-19T02:45:52.974Z,0.70
2017-12-19T02:48:20.501Z,0.70
2017-12-19T02:50:48.007Z,0.70
2017-12-19T02:53:16.315Z,0.70
2017-12-19T02:55:43.815Z,0.60
2017-12-19T02:58:11.339Z,0.60
2017-12-19T03:00:38.835Z,0.60
2017-12-19T03:03:06.355Z,0.60
2017-12-19T03:05:33.855Z,0.60
2017-12-19T03:08:01.379Z,0.60
2017-12-19T03:10:28.875Z,0.60
2017-12-19T03:12:56.375Z,0.60
2017-12-19T03:15:23.893Z,0.60
2017-12-19T03:17:51.386Z,0.60
2017-12-19T03:20:18.902Z,0.60
2017-12-19T03:22:46.394Z,0.60
2017-12-19T03:25:14.678Z,0.70
2017-12-19T03:27:42.938Z,0.60
2017-12-19T03:30:11.219Z,0.70
2017-12-19T03:32:39.479Z,0.70
2017-12-19T03:35:06.974Z,0.70
2017-12-19T03:37:34.492Z,0.70
2017-12-19T03:40:01.995Z,0.70
2017-12-19T03:42:29.512Z,0.70
2017-12-19T03:44:57.006Z,0.70
2017-12-19T03:47:24.522Z,0.70
2017-12-19T03:49:52.022Z,0.70
2017-12-19T03:52:19.538Z,0.70
2017-12-19T03:54:47.034Z,0.70
2017-12-19T03:57:14.526Z,0.60
2017-12-19T03:59:42.047Z,0.60
2017-12-19T04:02:10.317Z,0.70
2017-12-19T04:04:38.597Z,0.60
2017-12-19T04:07:06.862Z,0.60
2017-12-19T04:09:35.142Z,0.60
2017-12-19T04:12:03.398Z,0.70
2017-12-19T04:14:30.915Z,0.60
2017-12-19T04:16:58.410Z,0.70
2017-12-19T04:19:25.926Z,0.70
2017-12-19T04:21:53.423Z,0.70
2017-12-19T04:24:20.921Z,0.70
2017-12-19T04:26:48.438Z,0.70
2017-12-19T04:29:15.935Z,0.70
2017-12-19T04:31:44.216Z,0.80
2017-12-19T04:34:11.714Z,0.80
2017-12-19T04:36:39.226Z,0.80
2017-12-19T04:39:07.486Z,0.90
2017-12-19T04:41:35.770Z,0.90
2017-12-19T04:44:04.026Z,0.90
2017-12-19T04:46:31.546Z,0.90
2017-12-19T04:48:59.042Z,0.90
2017-12-19T04:51:26.542Z,0.90
2017-12-19T04:53:54.062Z,0.90
2017-12-19T04:56:21.558Z,0.90
2017-12-19T04:58:49.076Z,1.00
2017-12-19T05:01:16.570Z,1.00
2017-12-19T05:03:44.090Z,0.90
2017-12-19T05:06:11.582Z,0.90
2017-12-19T05:08:39.866Z,1.00
2017-12-19T05:11:07.363Z,1.00
2017-12-19T05:13:34.882Z,1.00
2017-12-19T05:16:02.378Z,1.00
2017-12-19T05:18:29.874Z,1.10
2017-12-19T05:20:58.159Z,1.10
2017-12-19T05:23:25.654Z,1.10
2017-12-19T05:25:53.166Z,1.10
2017-12-19T05:28:20.665Z,1.10
2017-12-19T05:30:48.183Z,1.10
2017-12-19T05:33:15.678Z,1.10
2017-12-19T05:35:43.199Z,1.20
2017-12-19T05:38:11.458Z,1.20
2017-12-19T05:40:38.979Z,1.20
2017-12-19T05:43:06.474Z,1.20
2017-12-19T05:45:33.966Z,1.20
2017-12-19T05:48:02.246Z,1.20
2017-12-19T05:50:29.743Z,1.20
2017-12-19T05:52:57.263Z,1.20
2017-12-19T05:55:25.523Z,1.20
2017-12-19T05:57:53.805Z,1.20
2017-12-19T06:00:22.066Z,1.10
2017-12-19T06:02:49.577Z,1.10
2017-12-19T06:05:17.076Z,1.10
2017-12-19T06:07:44.590Z,1.10
2017-12-19T06:10:12.086Z,1.10
2017-12-19T06:12:39.583Z,1.10
2017-12-19T06:15:07.098Z,1.10
2017-12-19T06:17:34.586Z,1.10
2017-12-19T06:20:02.870Z,1.00
2017-12-19T06:22:31.132Z,1.10
2017-12-19T06:24:59.455Z,1.00
2017-12-19T06:27:26.947Z,1.00
2017-12-19T06:29:54.466Z,1.00
2017-12-19T06:32:21.962Z,1.00
2017-12-19T06:34:49.482Z,1.10
2017-12-19T06:37:16.979Z,1.10
2017-12-19T06:39:44.470Z,1.10
2017-12-19T06:42:12.750Z,1.10
2017-12-19T06:44:41.060Z,1.00
2017-12-19T06:47:08.587Z,1.00
2017-12-19T06:49:36.846Z,1.00
2017-12-19T06:52:04.366Z,1.00
2017-12-19T06:54:31.858Z,1.00
2017-12-19T06:56:59.370Z,1.00
2017-12-19T06:59:26.870Z,1.00
2017-12-19T07:01:54.361Z,1.00
2017-12-19T07:04:21.878Z,1.00
2017-12-19T07:06:49.370Z,1.00
2017-12-19T07:09:17.651Z,1.00
2017-12-19T07:11:45.906Z,1.00
2017-12-19T07:14:13.427Z,1.00
2017-12-19T07:16:40.922Z,1.00
2017-12-19T07:19:08.626Z,1.00
2017-12-19T07:21:36.122Z,0.90
2017-12-19T07:24:03.637Z,1.00
2017-12-19T07:26:31.135Z,1.00
2017-12-19T07:28:58.630Z,1.00
2017-12-19T07:31:26.910Z,1.00
2017-12-19T07:33:55.170Z,0.90
2017-12-19T07:36:22.682Z,0.90
2017-12-19T07:38:50.178Z,0.90
2017-12-19T07:41:17.698Z,1.00
2017-12-19T07:43:45.195Z,0.90
2017-12-19T07:46:13.485Z,0.90
2017-12-19T07:48:41.755Z,0.90
2017-12-19T07:51:09.278Z,0.90
2017-12-19T07:53:36.770Z,0.90
2017-12-19T07:56:04.263Z,0.90
2017-12-19T07:58:31.778Z,0.90
2017-12-19T08:00:59.275Z,0.90
2017-12-19T08:03:27.049Z,1.00
2017-12-19T08:05:54.626Z,1.00
2017-12-19T08:08:22.142Z,1.00
2017-12-19T08:10:50.398Z,1.10
2017-12-19T08:13:17.914Z,1.10
2017-12-19T08:15:45.403Z,1.10
2017-12-19T08:18:12.922Z,1.10
2017-12-19T08:20:40.418Z,1.10
2017-12-19T08:23:07.935Z,1.10
2017-12-19T08:25:35.426Z,1.10
2017-12-19T08:28:02.959Z,1.10
2017-12-19T08:30:30.451Z,1.10
2017-12-19T08:32:57.964Z,1.20
2017-12-19T08:35:25.467Z,1.20
2017-12-19T08:37:52.957Z,1.30
2017-12-19T08:40:21.244Z,1.30
2017-12-19T08:42:49.502Z,1.40
2017-12-19T08:45:17.022Z,1.40
2017-12-19T08:47:44.521Z,1.50
2017-12-19T08:50:12.822Z,1.60
2017-12-19T08:52:40.318Z,1.50
2017-12-19T08:55:07.830Z,1.60
2017-12-19T08:57:35.351Z,1.70
2017-12-19T09:00:02.886Z,1.80
2017-12-19T09:02:30.374Z,1.80
2017-12-19T09:04:57.874Z,1.90
2017-12-19T09:07:25.390Z,2.10
2017-12-19T09:09:52.882Z,2.10
2017-12-19T09:12:21.163Z,2.30
2017-12-19T09:14:48.659Z,2.30
2017-12-19T09:17:16.170Z,2.40
2017-12-19T09:19:44.430Z,2.40
2017-12-19T09:22:11.946Z,2.40
2017-12-19T09:24:39.442Z,2.40
2017-12-19T09:27:06.967Z,2.50
2017-12-19T09:29:34.454Z,2.60
2017-12-19T09:32:01.945Z,2.50
2017-12-19T09:34:29.462Z,2.60
2017-12-19T09:36:56.954Z,2.60
2017-12-19T09:39:25.236Z,2.60
2017-12-19T09:41:52.726Z,2.60
2017-12-19T09:44:20.237Z,2.70
2017-12-19T09:46:48.493Z,2.60
2017-12-19T09:49:16.010Z,2.60
2017-12-19T09:51:43.516Z,2.60
2017-12-19T09:54:11.034Z,2.50
2017-12-19T09:56:38.531Z,2.60
2017-12-19T09:59:06.034Z,2.60
2017-12-19T10:01:33.560Z,2.60
2017-12-19T10:04:01.827Z,2.60
2017-12-19T10:06:30.110Z,2.60
2017-12-19T10:08:58.370Z,2.60
2017-12-19T10:11:25.886Z,2.60
2017-12-19T10:13:53.383Z,2.60
2017-12-19T10:16:20.903Z,2.60
2017-12-19T10:18:49.274Z,2.60
2017-12-19T10:21:16.799Z,2.70
2017-12-19T10:23:45.063Z,2.70
2017-12-19T10:26:12.587Z,2.70
2017-12-19T10:28:40.087Z,2.70
2017-12-19T10:31:07.583Z,2.70
2017-12-19T10:33:35.140Z,2.80
2017-12-19T10:36:02.638Z,2.80
2017-12-19T10:38:30.150Z,2.90
2017-12-19T10:40:57.638Z,2.90
2017-12-19T10:43:25.155Z,2.90
2017-12-19T10:45:53.418Z,3.10
2017-12-19T10:48:21.702Z,3.10
2017-12-19T10:50:49.962Z,3.10
2017-12-19T10:53:17.474Z,3.10
2017-12-19T10:55:44.966Z,3.10
2017-12-19T10:58:12.458Z,3.20
2017-12-19T11:00:40.742Z,3.20
2017-12-19T11:03:08.239Z,3.20
2017-12-19T11:05:35.758Z,3.20
2017-12-19T11:08:03.257Z,3.20
2017-12-19T11:10:30.774Z,3.20
2017-12-19T11:12:58.280Z,3.20
2017-12-19T11:15:25.798Z,3.20
2017-12-19T11:17:53.290Z,3.20
2017-12-19T11:20:20.806Z,3.20
2017-12-19T11:22:48.323Z,3.20
2017-12-19T11:25:15.822Z,3.30
2017-12-19T11:27:43.339Z,3.20
2017-12-19T11:30:10.835Z,3.20
2017-12-19T11:32:39.114Z,3.30
2017-12-19T11:35:07.375Z,3.30
2017-12-19T11:37:35.659Z,3.20
2017-12-19T11:40:03.927Z,3.10
2017-12-19T11:42:32.211Z,3.10
2017-12-19T11:45:00.466Z,3.20
2017-12-19T11:47:27.982Z,3.20
2017-12-19T11:49:55.469Z,3.20
2017-12-19T11:52:22.989Z,3.20
2017-12-19T11:54:50.481Z,3.20
2017-12-19T11:57:17.974Z,3.30
2017-12-19T11:59:46.251Z,3.40
2017-12-19T12:02:14.510Z,3.50
2017-12-19T12:04:42.036Z,3.50
2017-12-19T12:07:09.526Z,3.50
2017-12-19T12:09:37.038Z,3.50
2017-12-19T12:12:04.531Z,3.60
2017-12-19T12:14:32.050Z,3.50
2017-12-19T12:16:59.546Z,3.50
2017-12-19T12:19:27.063Z,3.50
2017-12-19T12:21:54.558Z,3.50
2017-12-19T12:24:22.074Z,3.50
2017-12-19T12:26:49.566Z,3.50
2017-12-19T12:29:17.054Z,3.50
2017-12-19T12:31:44.570Z,3.50
2017-12-19T12:34:12.062Z,3.50
2017-12-19T12:36:39.588Z,3.50
2017-12-19T12:39:07.102Z,3.50
2017-12-19T12:41:35.386Z,3.50
2017-12-19T12:44:03.647Z,3.60
2017-12-19T12:46:31.934Z,3.60
2017-12-19T12:49:00.195Z,3.60
2017-12-19T12:51:27.687Z,3.50
2017-12-19T12:53:55.206Z,3.60
2017-12-19T12:56:22.706Z,3.60
2017-12-19T12:58:50.223Z,3.70
2017-12-19T13:01:17.714Z,3.70
2017-12-19T13:03:45.230Z,3.80
2017-12-19T13:06:12.726Z,3.80
2017-12-19T13:08:40.258Z,3.70
2017-12-19T13:11:07.755Z,3.80
2017-12-19T13:13:35.271Z,3.80
2017-12-19T13:16:02.771Z,3.80
2017-12-19T13:18:30.290Z,3.80
2017-12-19T13:20:57.787Z,3.70
2017-12-19T13:23:25.278Z,3.60
2017-12-19T13:25:52.794Z,3.60
2017-12-19T13:28:20.291Z,3.60
2017-12-19T13:30:47.810Z,3.60
2017-12-19T13:33:15.298Z,3.60
2017-12-19T13:35:42.821Z,3.70
2017-12-19T13:38:11.083Z,3.70
2017-12-19T13:40:39.366Z,3.60
2017-12-19T13:43:07.631Z,3.70
2017-12-19T13:45:35.146Z,3.60
2017-12-19T13:48:03.411Z,3.70
2017-12-19T13:50:30.906Z,3.70
2017-12-19T13:52:58.423Z,3.60
2017-12-19T13:55:25.934Z,3.70
2017-12-19T13:57:53.451Z,3.70
2017-12-19T14:00:20.949Z,3.60
2017-12-19T14:02:48.468Z,3.50
2017-12-19T14:05:15.958Z,3.50
2017-12-19T14:07:43.479Z,3.50
2017-12-19T14:10:10.975Z,3.40
2017-12-19T14:12:38.499Z,3.40
2017-12-19T14:15:05.994Z,3.20
2017-12-19T14:17:33.489Z,3.20
2017-12-19T14:20:01.011Z,3.20
2017-12-19T14:22:28.506Z,3.10
2017-12-19T14:24:56.021Z,3.10
2017-12-19T14:27:23.514Z,3.10
2017-12-19T14:29:51.795Z,3.10
2017-12-19T14:32:20.054Z,3.10
2017-12-19T14:34:48.338Z,3.10
2017-12-19T14:37:16.598Z,3.10
2017-12-19T14:39:44.116Z,3.00
2017-12-19T14:42:11.614Z,3.10
2017-12-19T14:44:39.117Z,3.00
2017-12-19T14:47:06.634Z,3.00
2017-12-19T14:49:34.126Z,3.00
2017-12-19T14:52:01.642Z,3.00
2017-12-19T14:54:29.150Z,3.00
2017-12-19T14:56:56.666Z,3.00
2017-12-19T14:59:24.163Z,3.00
2017-12-19T15:01:51.687Z,3.00
2017-12-19T15:04:20.009Z,3.00
2017-12-19T15:06:48.255Z,3.00
2017-12-19T15:09:16.521Z,3.00
2017-12-19T15:11:44.834Z,3.00
2017-12-19T15:14:12.326Z,2.90
2017-12-19T15:16:39.838Z,2.90
2017-12-19T15:19:07.337Z,3.00
2017-12-19T15:21:34.826Z,3.00
2017-12-19T15:24:02.346Z,3.00
2017-12-19T15:26:29.838Z,2.90
2017-12-19T15:28:58.127Z,3.00
2017-12-19T15:31:26.392Z,2.90
2017-12-19T15:33:53.911Z,2.90
2017-12-19T15:36:21.404Z,2.90
2017-12-19T15:38:48.918Z,2.90
2017-12-19T15:41:16.414Z,3.00
2017-12-19T15:43:43.934Z,3.00
2017-12-19T15:46:11.433Z,2.90
2017-12-19T15:48:38.958Z,3.00
2017-12-19T15:51:06.455Z,3.00
2017-12-19T15:53:33.952Z,3.00
2017-12-19T15:56:01.471Z,2.90
2017-12-19T15:58:28.971Z,3.00
2017-12-19T16:00:56.487Z,3.00
2017-12-19T16:03:23.982Z,2.90
2017-12-19T16:05:51.498Z,3.00
2017-12-19T16:08:19.001Z,3.00
2017-12-19T16:10:46.518Z,2.90
2017-12-19T16:13:14.774Z,3.00
2017-12-19T16:15:42.295Z,2.90
2017-12-19T16:18:09.786Z,3.00
2017-12-19T16:20:37.279Z,2.90
2017-12-19T16:23:04.799Z,3.00
2017-12-19T16:25:32.295Z,3.00
2017-12-19T16:27:59.811Z,3.00
2017-12-19T16:30:27.368Z,3.00
2017-12-19T16:32:55.605Z,3.00
2017-12-19T16:35:23.870Z,3.00
2017-12-19T16:37:52.159Z,3.00
2017-12-19T16:40:20.419Z,3.10
2017-12-19T16:42:47.934Z,3.00
2017-12-19T16:45:15.431Z,3.00
2017-12-19T16:47:42.951Z,3.00
2017-12-19T16:50:10.447Z,3.00
2017-12-19T16:52:37.948Z,3.00
2017-12-19T16:55:05.466Z,3.00
2017-12-19T16:57:33.730Z,3.10
2017-12-19T17:00:02.755Z,3.00
2017-12-19T17:02:31.013Z,3.00
2017-12-19T17:04:58.531Z,3.10
2017-12-19T17:07:26.033Z,3.00
2017-12-19T17:09:54.315Z,3.00
2017-12-19T17:12:22.581Z,3.00
2017-12-19T17:14:50.100Z,3.00
2017-12-19T17:17:17.594Z,3.10
2017-12-19T17:19:45.106Z,3.10
2017-12-19T17:22:12.603Z,3.00
2017-12-19T17:24:40.099Z,3.00
2017-12-19T17:27:07.610Z,3.00
2017-12-19T17:29:35.870Z,3.00
2017-12-19T17:32:03.379Z,3.00
2017-12-19T17:34:31.641Z,3.00
2017-12-19T17:36:59.158Z,3.00
2017-12-19T17:39:26.646Z,3.00
2017-12-19T17:41:54.162Z,3.00
2017-12-19T17:44:21.654Z,3.00
2017-12-19T17:46:49.167Z,3.00
2017-12-19T17:49:16.662Z,3.00
2017-12-19T17:51:44.150Z,3.00
2017-12-19T17:54:11.662Z,3.00
2017-12-19T17:56:39.163Z,3.00
2017-12-19T17:59:06.678Z,3.00
2017-12-19T18:01:34.166Z,3.00
2017-12-19T18:04:01.688Z,3.00
2017-12-19T18:06:29.191Z,3.00
2017-12-19T18:08:56.712Z,3.00
2017-12-19T18:11:24.206Z,3.00
2017-12-19T18:13:51.703Z,3.00
2017-12-19T18:16:19.218Z,3.00
2017-12-19T18:18:46.716Z,2.90
2017-12-19T18:21:14.233Z,2.90
2017-12-19T18:23:41.727Z,2.90
2017-12-19T18:26:09.253Z,3.00
2017-12-19T18:28:36.751Z,3.00
2017-12-19T18:31:04.275Z,3.00
2017-12-19T18:33:32.537Z,3.00
2017-12-19T18:36:00.035Z,2.90
2017-12-19T18:38:27.555Z,3.00
2017-12-19T18:40:55.051Z,3.00
2017-12-19T18:43:23.333Z,3.00
2017-12-19T18:45:50.831Z,3.00
2017-12-19T18:48:18.350Z,3.00
2017-12-19T18:50:45.854Z,3.00
2017-12-19T18:53:13.374Z,3.00
2017-12-19T18:55:40.871Z,3.00
2017-12-19T18:58:08.366Z,3.00
2017-12-19T19:00:35.906Z,3.00
2017-12-19T19:03:03.426Z,3.00
2017-12-19T19:05:30.954Z,2.90
2017-12-19T19:07:59.231Z,3.00
2017-12-19T19:10:27.520Z,2.90
2017-12-19T19:12:55.018Z,2.90
2017-12-19T19:15:22.554Z,2.90
2017-12-19T19:17:50.042Z,2.90
2017-12-19T19:20:17.566Z,2.90
2017-12-19T19:22:45.058Z,2.90
2017-12-19T19:25:12.548Z,2.90
2017-12-19T19:27:40.831Z,2.90
2017-12-19T19:30:09.090Z,2.80
2017-12-19T19:32:37.373Z,2.80
2017-12-19T19:35:05.686Z,2.80
2017-12-19T19:37:33.930Z,2.80
2017-12-19T19:40:02.190Z,2.90
2017-12-19T19:42:29.707Z,2.80
2017-12-19T19:44:57.201Z,2.90
2017-12-19T19:47:24.719Z,2.90
2017-12-19T19:49:52.219Z,2.90
2017-12-19T19:52:19.730Z,2.90
2017-12-19T19:54:47.223Z,2.90
2017-12-19T19:57:14.714Z,3.00
2017-12-19T19:59:43.003Z,3.00
2017-12-19T20:02:10.498Z,2.90
2017-12-19T20:04:38.015Z,2.90
2017-12-19T20:07:06.279Z,2.90
2017-12-19T20:09:34.558Z,2.90
2017-12-19T20:12:02.826Z,2.90
2017-12-19T20:14:31.111Z,2.90
2017-12-19T20:16:59.370Z,2.90
2017-12-19T20:19:26.890Z,2.90
2017-12-19T20:21:54.387Z,2.90
2017-12-19T20:24:21.883Z,2.90
2017-12-19T20:26:49.407Z,2.90
2017-12-19T20:29:16.906Z,2.90
2017-12-19T20:31:44.422Z,2.90
2017-12-19T20:34:11.919Z,2.90
2017-12-19T20:36:39.438Z,2.90
2017-12-19T20:39:06.935Z,2.90
2017-12-19T20:41:34.445Z,2.90
2017-12-19T20:44:01.938Z,2.90
2017-12-19T20:46:29.454Z,2.90
2017-12-19T20:48:57.722Z,2.90
2017-12-19T20:51:25.218Z,2.90
2017-12-19T20:53:53.506Z,2.90
2017-12-19T20:56:21.003Z,2.90
2017-12-19T20:58:48.520Z,2.90
2017-12-19T21:01:16.783Z,2.90
2017-12-19T21:03:45.066Z,2.90
2017-12-19T21:06:13.327Z,2.90
2017-12-19T21:08:40.839Z,2.80
2017-12-19T21:11:08.334Z,2.80
2017-12-19T21:13:35.855Z,2.80
2017-12-19T21:16:03.351Z,2.90
2017-12-19T21:18:30.847Z,2.90
2017-12-19T21:20:58.362Z,2.80
2017-12-19T21:23:25.854Z,2.80
2017-12-19T21:25:54.139Z,2.80
2017-12-19T21:28:21.634Z,2.80
2017-12-19T21:30:49.150Z,2.80
2017-12-19T21:33:17.415Z,2.80
2017-12-19T21:35:45.695Z,2.80
2017-12-19T21:38:13.965Z,2.80
2017-12-19T21:40:42.251Z,2.80
2017-12-19T21:43:10.514Z,2.70
2017-12-19T21:45:38.774Z,2.80
2017-12-19T21:48:06.291Z,2.80
2017-12-19T21:50:33.791Z,2.70
2017-12-19T21:53:01.311Z,2.70
2017-12-19T21:55:28.807Z,2.80
2017-12-19T21:57:56.323Z,2.80
2017-12-19T22:00:23.819Z,2.80
2017-12-19T22:02:52.837Z,2.80
2017-12-19T22:05:21.094Z,2.80
2017-12-19T22:07:48.610Z,2.80
2017-12-19T22:10:16.107Z,2.80
2017-12-19T22:12:43.618Z,2.80
2017-12-19T22:15:11.115Z,2.80
2017-12-19T22:17:38.626Z,2.80
2017-12-19T22:20:06.122Z,2.80
2017-12-19T22:22:33.614Z,2.80
2017-12-19T22:25:01.134Z,2.80
2017-12-19T22:27:28.631Z,2.80
2017-12-19T22:29:56.150Z,2.80
2017-12-19T22:32:23.646Z,2.90
2017-12-19T22:34:51.162Z,2.90
2017-12-19T22:37:18.659Z,2.90
2017-12-19T22:39:46.179Z,2.90
2017-12-19T22:42:13.676Z,2.90
2017-12-19T22:44:41.968Z,2.90
2017-12-19T22:47:10.234Z,2.90
2017-12-19T22:49:38.494Z,2.90
2017-12-19T22:52:06.019Z,2.90
2017-12-19T22:54:33.514Z,2.90
2017-12-19T22:57:01.030Z,2.90
2017-12-19T22:59:28.522Z,2.90
2017-12-19T23:01:56.089Z,2.90
2017-12-19T23:04:23.550Z,2.90
2017-12-19T23:06:51.067Z,3.00
2017-12-19T23:09:18.558Z,2.90
2017-12-19T23:11:46.070Z,3.00
2017-12-19T23:14:13.567Z,3.00
2017-12-19T23:16:41.062Z,2.90
2017-12-19T23:19:09.346Z,2.90
2017-12-19T23:21:36.842Z,2.90
2017-12-19T23:24:04.354Z,2.90
2017-12-19T23:26:32.614Z,3.00
2017-12-19T23:29:00.126Z,3.00
2017-12-19T23:31:27.623Z,3.00
2017-12-19T23:33:55.143Z,3.00
2017-12-19T23:36:22.638Z,3.00
2017-12-19T23:38:50.159Z,3.00
2017-12-19T23:41:17.655Z,3.00
2017-12-19T23:43:45.174Z,3.00
2017-12-19T23:46:12.671Z,3.00
2017-12-19T23:48:40.166Z,2.90
2017-12-19T23:51:07.686Z,2.90
2017-12-19T23:53:35.182Z,2.90
2017-12-19T23:56:02.698Z,2.90
2017-12-19T23:58:30.213Z,2.90
